Time;durP1;ratioP1;P1;durP2;ratioP2;P2;SDS_P1;SDS_P2;PMS_P1;PMS_P2;Temp;Humidity;BMP_temperature;BMP_pressure;BME280_temperature;BME280_humidity;BME280_pressure;Samples;Min_cycle;Max_cycle;Signal;HPM_P1;HPM_P2
2021/01/31 00:02:18;;;;;;;63.20;9.45;;;3.70;98.80;;;;;;5074682;28;20257;-70
2021/01/31 00:04:48;;;;;;;65.93;10.45;;;3.70;99.60;;;;;;5074978;28;20221;-71
2021/01/31 00:07:16;;;;;;;65.63;10.65;;;3.70;99.50;;;;;;5074897;28;20676;-70
2021/01/31 00:09:42;;;;;;;63.95;9.85;;;3.70;99.30;;;;;;5074724;28;20237;-70
2021/01/31 00:12:10;;;;;;;62.85;9.02;;;3.70;99.50;;;;;;5074728;28;20289;-70
2021/01/31 00:14:36;;;;;;;67.05;9.95;;;3.70;99.50;;;;;;5074641;28;20229;-71
2021/01/31 00:17:03;;;;;;;63.80;9.40;;;3.70;99.50;;;;;;5074862;28;20211;-71
2021/01/31 00:19:29;;;;;;;65.63;9.85;;;3.70;99.60;;;;;;5074714;28;20201;-70
2021/01/31 00:22:01;;;;;;;64.80;9.93;;;3.70;99.70;;;;;;5074587;28;20212;-70
2021/01/31 00:24:28;;;;;;;65.25;10.68;;;3.60;99.60;;;;;;5074578;28;20294;-70
2021/01/31 00:26:55;;;;;;;66.50;10.80;;;3.70;99.90;;;;;;5074526;28;20205;-70
2021/01/31 00:29:21;;;;;;;64.88;10.07;;;3.60;99.90;;;;;;5074427;28;20244;-70
2021/01/31 00:31:48;;;;;;;66.47;10.75;;;3.60;99.90;;;;;;5074673;28;20373;-70
2021/01/31 00:34:14;;;;;;;67.22;12.55;;;3.60;99.90;;;;;;5073988;28;20259;-70
2021/01/31 00:36:41;;;;;;;69.95;11.00;;;3.50;99.90;;;;;;5074429;28;20200;-71
2021/01/31 00:39:08;;;;;;;67.05;12.05;;;3.50;99.90;;;;;;5074378;28;20458;-71
2021/01/31 00:41:36;;;;;;;66.55;11.32;;;3.50;99.90;;;;;;5074455;28;20208;-71
2021/01/31 00:44:03;;;;;;;68.65;12.00;;;3.50;99.90;;;;;;5073830;28;20239;-70
2021/01/31 00:46:33;;;;;;;67.38;12.43;;;3.50;99.90;;;;;;5074228;28;20216;-71
2021/01/31 00:48:59;;;;;;;70.95;11.13;;;3.50;99.70;;;;;;5072674;28;20751;-71
2021/01/31 00:51:25;;;;;;;66.80;11.40;;;3.50;99.60;;;;;;5074245;28;20209;-71
2021/01/31 00:53:52;;;;;;;68.43;13.02;;;3.50;99.90;;;;;;5073820;28;20225;-70
2021/01/31 00:56:18;;;;;;;67.15;11.38;;;3.50;99.90;;;;;;5073891;28;20211;-70
2021/01/31 00:58:46;;;;;;;67.93;11.98;;;3.50;99.90;;;;;;5074389;28;20618;-71
2021/01/31 01:01:12;;;;;;;67.35;11.15;;;3.50;99.90;;;;;;5074097;28;20209;-70
2021/01/31 01:03:39;;;;;;;65.35;12.15;;;3.40;99.80;;;;;;5073674;28;20257;-70
2021/01/31 01:06:05;;;;;;;64.78;11.10;;;3.40;99.40;;;;;;5073940;28;20209;-67
2021/01/31 01:08:31;;;;;;;69.20;12.25;;;3.40;99.10;;;;;;5073805;28;20201;-69
2021/01/31 01:10:58;;;;;;;67.22;11.50;;;3.40;99.20;;;;;;5073696;28;20240;-70
2021/01/31 01:13:26;;;;;;;68.00;12.60;;;3.40;99.30;;;;;;5073704;28;20221;-68
2021/01/31 01:15:54;;;;;;;67.88;12.07;;;3.40;99.40;;;;;;5073847;28;20276;-69
2021/01/31 01:18:21;;;;;;;67.50;11.77;;;3.40;99.70;;;;;;5073555;28;20248;-69
2021/01/31 01:20:47;;;;;;;71.07;12.20;;;3.40;99.50;;;;;;5073731;28;20205;-70
2021/01/31 01:23:13;;;;;;;68.30;12.57;;;3.40;99.60;;;;;;5073293;28;20225;-69
2021/01/31 01:25:40;;;;;;;68.75;11.25;;;3.40;99.60;;;;;;5073221;28;20205;-69
2021/01/31 01:28:06;;;;;;;68.40;11.30;;;3.40;99.60;;;;;;5073390;28;20211;-70
2021/01/31 01:30:33;;;;;;;67.55;12.18;;;3.30;99.70;;;;;;5073406;28;20205;-69
2021/01/31 01:33:01;;;;;;;66.10;11.10;;;3.30;99.60;;;;;;5073099;28;20232;-70
2021/01/31 01:35:28;;;;;;;68.40;11.68;;;3.30;99.50;;;;;;5073240;28;20201;-69
2021/01/31 01:37:55;;;;;;;67.32;11.75;;;3.30;99.70;;;;;;5073266;28;20209;-70
2021/01/31 01:40:23;;;;;;;66.90;11.23;;;3.30;99.80;;;;;;5073038;28;20299;-70
2021/01/31 01:42:50;;;;;;;68.75;11.70;;;3.30;99.90;;;;;;5073274;28;20228;-69
2021/01/31 01:45:17;;;;;;;66.82;12.15;;;3.30;99.90;;;;;;5073062;28;20668;-70
2021/01/31 01:47:45;;;;;;;66.07;10.95;;;3.30;99.90;;;;;;5072981;28;20258;-69
2021/01/31 01:50:23;;;;;;;67.30;11.77;;;3.30;99.90;;;;;;5072985;28;20209;-69
2021/01/31 01:52:51;;;;;;;67.13;10.93;;;3.30;99.70;;;;;;5073143;28;20204;-69
2021/01/31 01:55:20;;;;;;;69.90;12.40;;;3.40;99.90;;;;;;5072890;28;20236;-69
2021/01/31 01:57:50;;;;;;;68.32;11.63;;;3.40;99.40;;;;;;5072956;28;20680;-70
2021/01/31 02:00:18;;;;;;;67.18;11.73;;;3.40;99.90;;;;;;5072645;28;20201;-69
2021/01/31 02:02:51;;;;;;;69.20;12.48;;;3.40;99.60;;;;;;5072486;28;20216;-70
2021/01/31 02:05:19;;;;;;;68.28;12.07;;;3.40;99.90;;;;;;5072390;28;20235;-69
2021/01/31 02:07:45;;;;;;;68.22;12.05;;;3.30;99.90;;;;;;5072852;28;20274;-70
2021/01/31 02:10:14;;;;;;;67.72;11.70;;;3.30;99.90;;;;;;5072751;28;20201;-70
2021/01/31 02:12:41;;;;;;;71.75;12.10;;;3.30;99.90;;;;;;5072499;28;20203;-69
2021/01/31 02:15:09;;;;;;;67.68;12.88;;;3.30;99.90;;;;;;5072368;28;20252;-70
2021/01/31 02:17:57;;;;;;;69.68;12.00;;;3.30;99.90;;;;;;5072319;28;20216;-70
2021/01/31 02:20:39;;;;;;;67.93;11.98;;;3.30;99.90;;;;;;5063328;28;20287;-70
2021/01/31 02:23:27;;;;;;;69.95;12.40;;;3.20;99.90;;;;;;5072081;28;20217;-69
2021/01/31 02:26:01;;;;;;;69.13;12.32;;;3.30;99.90;;;;;;5072191;28;20209;-70
2021/01/31 02:28:50;;;;;;;67.72;11.95;;;3.30;99.90;;;;;;5072315;28;20208;-69
2021/01/31 02:31:48;;;;;;;70.90;13.25;;;3.20;99.90;;;;;;5072396;28;20287;-70
2021/01/31 02:34:21;;;;;;;68.75;12.52;;;3.20;99.90;;;;;;5068261;28;20236;-69
2021/01/31 02:36:58;;;;;;;68.53;11.63;;;3.20;99.90;;;;;;5072394;28;20630;-70
2021/01/31 02:39:36;;;;;;;68.63;12.35;;;3.20;99.90;;;;;;5072287;28;20208;-70
2021/01/31 02:42:14;;;;;;;71.32;12.98;;;3.20;99.90;;;;;;5072009;28;20296;-70
2021/01/31 02:44:44;;;;;;;71.13;13.20;;;3.20;99.90;;;;;;5071936;28;20285;-70
2021/01/31 02:47:16;;;;;;;71.10;12.18;;;3.20;99.90;;;;;;5071964;28;20201;-70
2021/01/31 02:49:51;;;;;;;69.93;13.30;;;3.10;99.90;;;;;;5072046;28;20208;-70
2021/01/31 02:52:21;;;;;;;69.28;12.57;;;3.10;99.90;;;;;;5071911;28;20208;-69
2021/01/31 02:54:52;;;;;;;70.03;11.88;;;3.10;99.90;;;;;;5071929;28;20232;-70
2021/01/31 02:57:23;;;;;;;68.70;12.38;;;3.10;99.90;;;;;;5071830;28;20205;-70
2021/01/31 02:59:55;;;;;;;68.93;13.40;;;3.10;99.90;;;;;;5071977;28;20201;-70
2021/01/31 03:02:27;;;;;;;70.15;12.65;;;3.10;99.90;;;;;;5071535;28;20220;-70
2021/01/31 03:05:00;;;;;;;70.05;12.80;;;3.10;99.90;;;;;;5071787;28;20224;-70
2021/01/31 03:07:31;;;;;;;70.68;12.95;;;3.10;99.90;;;;;;5071876;28;20204;-70
2021/01/31 03:10:02;;;;;;;70.28;12.77;;;3.10;99.90;;;;;;5071897;28;20204;-69
2021/01/31 03:12:34;;;;;;;71.57;13.50;;;3.10;99.90;;;;;;5071041;28;20287;-70
2021/01/31 03:15:06;;;;;;;69.57;13.07;;;3.10;99.90;;;;;;5071479;28;20346;-70
2021/01/31 03:17:38;;;;;;;75.72;14.10;;;3.10;99.90;;;;;;5071677;28;20711;-69
2021/01/31 03:20:11;;;;;;;70.07;13.30;;;3.10;99.90;;;;;;5071566;28;20292;-70
2021/01/31 03:22:44;;;;;;;70.10;13.63;;;3.10;99.90;;;;;;5071652;28;20330;-70
2021/01/31 03:25:15;;;;;;;73.53;13.52;;;3.10;99.90;;;;;;5071599;28;20317;-70
2021/01/31 03:27:42;;;;;;;67.30;10.70;;;3.10;99.90;;;;;;5071541;28;20674;-70
2021/01/31 03:30:12;;;;;;;69.50;12.73;;;3.10;99.90;;;;;;5071343;28;20299;-69
2021/01/31 03:32:45;;;;;;;71.20;12.50;;;3.10;99.90;;;;;;5071244;28;20635;-70
2021/01/31 03:35:18;;;;;;;72.90;11.68;;;3.10;99.90;;;;;;5071261;28;20236;-70
2021/01/31 03:37:51;;;;;;;68.38;12.20;;;3.10;99.90;;;;;;5071435;28;20205;-69
2021/01/31 03:40:18;;;;;;;70.15;12.60;;;3.00;99.90;;;;;;5071496;28;20224;-69
2021/01/31 03:42:45;;;;;;;72.65;13.95;;;3.10;99.90;;;;;;5071184;28;20230;-69
2021/01/31 03:45:15;;;;;;;69.65;13.27;;;3.00;99.80;;;;;;5071110;28;20233;-70
2021/01/31 03:47:47;;;;;;;70.35;12.70;;;3.00;99.90;;;;;;5071790;28;20250;-70
2021/01/31 03:50:15;;;;;;;71.93;14.10;;;3.00;98.80;;;;;;5071289;28;20673;-70
2021/01/31 03:52:42;;;;;;;71.53;13.00;;;3.00;99.90;;;;;;5071155;28;20201;-70
2021/01/31 03:55:09;;;;;;;70.22;12.93;;;3.00;98.60;;;;;;5071096;28;20229;-70
2021/01/31 03:57:40;;;;;;;72.38;13.95;;;3.00;98.60;;;;;;5071166;28;20279;-70
2021/01/31 04:00:10;;;;;;;71.80;12.73;;;3.00;99.30;;;;;;5071392;28;20221;-70
2021/01/31 04:02:40;;;;;;;70.10;12.98;;;3.00;99.40;;;;;;5070887;28;20225;-70
2021/01/31 04:05:08;;;;;;;73.07;14.05;;;3.00;99.40;;;;;;5071207;28;20252;-70
2021/01/31 04:07:40;;;;;;;73.30;15.38;;;3.00;99.30;;;;;;5071127;28;20677;-70
2021/01/31 04:10:08;;;;;;;74.10;15.88;;;3.00;98.90;;;;;;5071086;28;20201;-70
2021/01/31 04:12:38;;;;;;;75.00;14.48;;;3.00;99.10;;;;;;5071235;28;20201;-70
2021/01/31 04:15:14;;;;;;;74.05;14.40;;;3.00;98.90;;;;;;5071197;28;20431;-70
2021/01/31 04:17:44;;;;;;;74.25;15.20;;;3.00;98.50;;;;;;5071269;28;20208;-70
2021/01/31 04:20:11;;;;;;;74.47;15.55;;;3.00;98.50;;;;;;5071519;28;20395;-70
2021/01/31 04:22:38;;;;;;;75.68;14.95;;;3.00;98.60;;;;;;5071379;28;20231;-70
2021/01/31 04:25:07;;;;;;;73.50;14.75;;;2.90;98.50;;;;;;5074453;28;20254;-70
2021/01/31 04:27:33;;;;;;;83.60;16.35;;;2.90;98.20;;;;;;5074731;28;20739;-70
2021/01/31 04:29:59;;;;;;;71.78;14.63;;;2.90;98.30;;;;;;5074489;28;20258;-69
2021/01/31 04:32:25;;;;;;;73.53;15.02;;;2.80;98.10;;;;;;5074420;28;20205;-69
2021/01/31 04:34:52;;;;;;;74.25;15.70;;;2.80;97.80;;;;;;5074240;28;20255;-70
2021/01/31 04:37:20;;;;;;;74.82;15.75;;;2.80;98.20;;;;;;5074350;28;20213;-70
2021/01/31 04:39:47;;;;;;;75.60;14.25;;;2.70;98.50;;;;;;5074503;28;20205;-69
2021/01/31 04:42:16;;;;;;;81.03;16.65;;;2.80;99.00;;;;;;5074245;28;20201;-69
2021/01/31 04:44:42;;;;;;;73.90;14.52;;;2.80;99.30;;;;;;5074108;28;20227;-69
2021/01/31 04:47:15;;;;;;;70.55;14.13;;;2.80;99.70;;;;;;5074127;28;20684;-69
2021/01/31 04:49:53;;;;;;;71.45;13.88;;;2.80;99.70;;;;;;5073978;28;20227;-70
2021/01/31 04:52:33;;;;;;;71.82;14.32;;;2.80;98.90;;;;;;5074015;28;20696;-70
2021/01/31 04:55:16;;;;;;;75.78;15.45;;;2.80;98.40;;;;;;5073956;28;20271;-70
2021/01/31 04:57:46;;;;;;;70.53;14.40;;;2.70;98.10;;;;;;5074012;28;20226;-70
2021/01/31 05:00:18;;;;;;;73.32;14.13;;;2.70;98.70;;;;;;5073873;28;20229;-68
2021/01/31 05:02:50;;;;;;;76.68;14.57;;;2.70;98.70;;;;;;5074008;28;20312;-69
2021/01/31 05:05:21;;;;;;;74.30;14.60;;;2.70;99.40;;;;;;5073922;28;20225;-69
2021/01/31 05:07:53;;;;;;;74.70;14.13;;;2.70;98.80;;;;;;5074076;28;20213;-70
2021/01/31 05:10:20;;;;;;;78.07;15.85;;;2.70;98.70;;;;;;5073878;28;20642;-70
2021/01/31 05:13:05;;;;;;;76.60;14.60;;;2.70;98.40;;;;;;5074015;28;20207;-69
2021/01/31 05:15:38;;;;;;;77.38;14.93;;;2.70;97.80;;;;;;5073795;28;20213;-69
2021/01/31 05:18:06;;;;;;;76.95;15.25;;;2.70;98.00;;;;;;5073767;28;20201;-69
2021/01/31 05:20:35;;;;;;;76.00;15.80;;;2.60;98.00;;;;;;5073593;28;20207;-69
2021/01/31 05:23:04;;;;;;;76.75;15.90;;;2.50;97.60;;;;;;5073120;28;20225;-70
2021/01/31 05:25:35;;;;;;;76.55;16.95;;;2.50;97.40;;;;;;5073644;28;20209;-70
2021/01/31 05:28:04;;;;;;;73.65;15.45;;;2.50;97.40;;;;;;5073461;28;20208;-70
2021/01/31 05:30:32;;;;;;;77.53;16.98;;;2.50;96.80;;;;;;5073250;28;20209;-70
2021/01/31 05:33:05;;;;;;;76.53;15.82;;;2.40;97.10;;;;;;5073149;28;20205;-70
2021/01/31 05:35:33;;;;;;;77.05;15.43;;;2.40;97.60;;;;;;5072434;28;20296;-70
2021/01/31 05:38:00;;;;;;;78.00;13.70;;;2.40;97.30;;;;;;5073553;28;20228;-70
2021/01/31 05:40:30;;;;;;;79.45;15.90;;;2.40;97.00;;;;;;5073391;28;20626;-70
2021/01/31 05:42:58;;;;;;;73.85;15.25;;;2.40;97.00;;;;;;5073082;28;20700;-70
2021/01/31 05:45:32;;;;;;;75.35;16.13;;;2.40;96.80;;;;;;5073111;28;20383;-70
2021/01/31 05:47:59;;;;;;;72.85;13.93;;;2.40;96.90;;;;;;5073129;28;20205;-70
2021/01/31 05:50:34;;;;;;;75.05;14.85;;;2.40;96.80;;;;;;5073119;28;20661;-69
2021/01/31 05:53:24;;;;;;;76.70;15.43;;;2.40;96.70;;;;;;5072831;28;20207;-70
2021/01/31 05:55:51;;;;;;;76.50;16.55;;;2.40;96.90;;;;;;5072897;28;20212;-70
2021/01/31 05:58:20;;;;;;;76.82;16.63;;;2.40;97.30;;;;;;5072718;28;20354;-68
2021/01/31 06:00:48;;;;;;;72.90;14.13;;;2.40;97.10;;;;;;5072813;28;20689;-70
2021/01/31 06:03:20;;;;;;;76.32;16.13;;;2.50;97.20;;;;;;5072691;28;20236;-71
2021/01/31 06:05:47;;;;;;;75.18;15.05;;;2.50;97.30;;;;;;5072593;28;20212;-70
2021/01/31 06:08:27;;;;;;;77.43;16.17;;;2.50;97.30;;;;;;5072735;28;20200;-71
2021/01/31 06:11:00;;;;;;;71.97;14.73;;;2.60;97.40;;;;;;5072628;28;20287;-71
2021/01/31 06:13:28;;;;;;;75.30;16.20;;;2.60;97.50;;;;;;5072605;28;20628;-70
2021/01/31 06:15:57;;;;;;;75.15;15.23;;;2.60;97.60;;;;;;5072508;28;20204;-70
2021/01/31 06:18:27;;;;;;;74.32;15.65;;;2.70;97.80;;;;;;5072297;28;20205;-70
2021/01/31 06:20:54;;;;;;;76.53;14.80;;;2.70;97.90;;;;;;5072468;28;20255;-71
2021/01/31 06:23:32;;;;;;;75.15;15.68;;;2.70;97.90;;;;;;5072051;28;20343;-70
2021/01/31 06:25:58;;;;;;;75.05;15.10;;;2.70;98.20;;;;;;5072440;28;20304;-70
2021/01/31 06:28:28;;;;;;;78.32;15.40;;;2.70;98.10;;;;;;5072318;28;20204;-70
2021/01/31 06:31:04;;;;;;;71.75;14.20;;;2.70;98.20;;;;;;5072430;28;20216;-70
2021/01/31 06:33:31;;;;;;;74.57;14.48;;;2.80;98.50;;;;;;5072126;28;20599;-69
2021/01/31 06:36:07;;;;;;;79.25;16.98;;;2.70;98.30;;;;;;5072102;28;20247;-71
2021/01/31 06:38:44;;;;;;;73.57;14.23;;;2.70;99.10;;;;;;5072321;28;20208;-71
2021/01/31 06:41:22;;;;;;;75.88;15.05;;;2.80;98.90;;;;;;5072200;28;20208;-70
2021/01/31 06:44:03;;;;;;;78.15;15.80;;;2.80;99.40;;;;;;5071847;28;20654;-70
2021/01/31 06:46:42;;;;;;;75.47;14.95;;;2.80;99.00;;;;;;5071831;28;20212;-71
2021/01/31 06:49:22;;;;;;;73.03;15.73;;;2.80;98.50;;;;;;5072121;28;20200;-71
2021/01/31 06:52:02;;;;;;;76.40;15.50;;;2.80;98.60;;;;;;5071968;28;20205;-71
2021/01/31 06:54:58;;;;;;;75.97;13.57;;;2.70;98.80;;;;;;5071904;28;20311;-71
2021/01/31 06:58:02;;;;;;;71.93;13.77;;;2.70;98.80;;;;;;5072013;28;20213;-71
2021/01/31 07:00:52;;;;;;;73.50;15.02;;;2.70;98.30;;;;;;5031978;28;20680;-71
2021/01/31 07:03:44;;;;;;;75.20;15.23;;;2.70;98.50;;;;;;5069676;28;20239;-70
2021/01/31 07:06:44;;;;;;;75.47;15.13;;;2.70;98.70;;;;;;5071924;28;20204;-71
2021/01/31 07:09:23;;;;;;;72.03;13.75;;;2.80;98.70;;;;;;5069840;28;20204;-71
2021/01/31 07:11:53;;;;;;;74.70;14.43;;;2.70;98.40;;;;;;5071918;28;20209;-71
2021/01/31 07:14:36;;;;;;;74.03;13.93;;;2.70;98.80;;;;;;5072155;28;20216;-70
2021/01/31 07:17:10;;;;;;;74.15;13.55;;;2.70;98.80;;;;;;5076727;28;20211;-70
2021/01/31 07:19:41;;;;;;;75.78;14.90;;;2.70;98.80;;;;;;5076941;28;20201;-71
2021/01/31 07:22:12;;;;;;;75.15;15.35;;;2.70;98.50;;;;;;5075525;28;20200;-71
2021/01/31 07:24:47;;;;;;;73.47;14.20;;;2.80;99.30;;;;;;5074798;28;20235;-71
2021/01/31 07:27:22;;;;;;;76.63;15.07;;;2.80;99.00;;;;;;5074768;28;20251;-71
2021/01/31 07:30:00;;;;;;;74.32;16.42;;;2.80;98.70;;;;;;5074307;28;20205;-71
2021/01/31 07:32:40;;;;;;;78.70;16.08;;;2.80;98.80;;;;;;5073529;28;20696;-70
2021/01/31 07:35:11;;;;;;;75.90;14.38;;;2.90;99.20;;;;;;5073829;28;20246;-70
2021/01/31 07:37:41;;;;;;;74.90;16.08;;;2.90;98.90;;;;;;5073315;28;20719;-70
2021/01/31 07:40:11;;;;;;;71.40;14.40;;;2.90;99.50;;;;;;5073665;28;20205;-70
2021/01/31 07:42:41;;;;;;;74.22;15.43;;;3.00;98.70;;;;;;5074300;28;20209;-70
2021/01/31 07:45:12;;;;;;;73.22;13.68;;;3.00;98.80;;;;;;5073957;28;20228;-71
2021/01/31 07:47:40;;;;;;;76.35;15.82;;;3.00;98.70;;;;;;5073522;28;20204;-71
2021/01/31 07:50:35;;;;;;;73.78;15.45;;;3.00;98.90;;;;;;5073658;28;20671;-71
2021/01/31 07:53:03;;;;;;;74.65;15.18;;;3.10;98.50;;;;;;5072926;28;20220;-71
2021/01/31 07:55:37;;;;;;;75.93;15.63;;;3.10;98.70;;;;;;5073375;28;20231;-70
2021/01/31 07:58:40;;;;;;;74.32;15.35;;;3.10;98.30;;;;;;5075112;28;20673;-71
2021/01/31 08:01:14;;;;;;;73.03;14.85;;;3.20;98.10;;;;;;5078424;28;20216;-71
2021/01/31 08:03:42;;;;;;;76.45;15.55;;;3.20;97.80;;;;;;5077206;28;20237;-71
2021/01/31 08:06:43;;;;;;;73.45;14.95;;;3.20;97.20;;;;;;5077615;28;20200;-71
2021/01/31 08:09:10;;;;;;;77.25;16.70;;;3.20;96.90;;;;;;5076641;28;20211;-69
2021/01/31 08:11:56;;;;;;;73.00;15.10;;;3.20;96.70;;;;;;5077009;28;20296;-71
2021/01/31 08:15:00;;;;;;;73.63;15.50;;;3.20;96.60;;;;;;5078560;28;20374;-71
2021/01/31 08:18:08;;;;;;;75.35;14.32;;;3.20;95.80;;;;;;5077201;28;20262;-71
2021/01/31 08:20:50;;;;;;;76.85;14.18;;;3.20;95.80;;;;;;5076958;28;20205;-71
2021/01/31 08:23:47;;;;;;;75.63;14.63;;;3.20;95.00;;;;;;5076704;28;20235;-71
2021/01/31 08:26:44;;;;;;;73.38;14.60;;;3.20;94.20;;;;;;5076394;28;20212;-71
2021/01/31 08:29:30;;;;;;;70.80;13.13;;;3.20;93.60;;;;;;5076421;28;20209;-71
2021/01/31 08:32:05;;;;;;;72.82;13.90;;;3.20;93.00;;;;;;5075777;28;20711;-71
2021/01/31 08:34:53;;;;;;;70.47;12.98;;;3.30;92.30;;;;;;5074526;28;20235;-70
2021/01/31 08:37:23;;;;;;;72.03;13.68;;;3.30;91.80;;;;;;5074319;28;20295;-71
2021/01/31 08:39:50;;;;;;;71.97;13.85;;;3.30;90.80;;;;;;5074452;28;20204;-71
2021/01/31 08:42:17;;;;;;;71.43;13.95;;;3.30;87.40;;;;;;5074311;28;20295;-71
2021/01/31 08:44:54;;;;;;;72.35;14.13;;;3.40;85.50;;;;;;5074251;28;20232;-71
2021/01/31 08:47:20;;;;;;;71.95;14.30;;;3.40;84.50;;;;;;5074339;28;20584;-71
2021/01/31 08:49:57;;;;;;;71.20;13.50;;;3.50;83.60;;;;;;5074417;28;20238;-71
2021/01/31 08:52:23;;;;;;;72.72;14.38;;;3.50;82.40;;;;;;5073519;28;20695;-69
2021/01/31 08:54:59;;;;;;;69.47;13.65;;;3.50;81.40;;;;;;5088544;28;20739;-70
2021/01/31 08:57:26;;;;;;;72.20;14.00;;;3.50;80.80;;;;;;5074045;28;20226;-68
2021/01/31 08:59:53;;;;;;;70.78;13.82;;;3.60;80.40;;;;;;5081100;28;20251;-69
2021/01/31 09:02:24;;;;;;;72.88;14.05;;;3.60;79.60;;;;;;5093713;28;20694;-69
2021/01/31 09:04:57;;;;;;;72.68;16.10;;;3.70;77.90;;;;;;5095233;28;20235;-69
2021/01/31 09:07:28;;;;;;;70.72;14.05;;;3.70;76.70;;;;;;5093932;28;20295;-69
2021/01/31 09:10:00;;;;;;;70.95;14.00;;;3.80;75.70;;;;;;5094086;28;20211;-70
2021/01/31 09:12:26;;;;;;;70.95;13.60;;;3.80;75.10;;;;;;5095153;28;20189;-70
2021/01/31 09:15:09;;;;;;;73.03;14.65;;;3.80;72.30;;;;;;5095265;28;20228;-68
2021/01/31 09:17:35;;;;;;;69.85;13.63;;;3.80;70.10;;;;;;5094809;28;20748;-70
2021/01/31 09:20:16;;;;;;;71.63;14.13;;;3.90;69.40;;;;;;5094782;28;20717;-70
2021/01/31 09:22:45;;;;;;;70.13;13.63;;;3.80;68.20;;;;;;5093702;28;20254;-70
2021/01/31 09:25:15;;;;;;;71.85;14.02;;;3.80;65.60;;;;;;5093719;28;20263;-70
2021/01/31 09:28:01;;;;;;;70.88;13.50;;;3.80;65.00;;;;;;5093786;28;20262;-70
2021/01/31 09:30:29;;;;;;;69.03;13.45;;;3.80;64.10;;;;;;5089383;28;20220;-70
2021/01/31 09:33:01;;;;;;;71.70;13.10;;;3.80;62.90;;;;;;5078735;28;20243;-70
2021/01/31 09:35:30;;;;;;;71.05;12.98;;;3.80;63.70;;;;;;5093646;28;20695;-70
2021/01/31 09:38:10;;;;;;;70.28;13.85;;;3.70;62.20;;;;;;5093429;28;20204;-71
2021/01/31 09:40:38;;;;;;;70.28;13.85;;;3.70;62.10;;;;;;5093271;28;20200;-71
2021/01/31 09:43:07;;;;;;;69.20;13.82;;;3.70;61.90;;;;;;5093044;28;20220;-71
2021/01/31 09:45:38;;;;;;;70.07;14.05;;;3.80;61.40;;;;;;5093022;28;20647;-69
2021/01/31 09:48:07;;;;;;;72.10;14.25;;;3.80;59.90;;;;;;5093343;28;20212;-70
2021/01/31 09:50:34;;;;;;;71.13;13.93;;;3.70;56.60;;;;;;5093038;28;20205;-70
2021/01/31 09:53:01;;;;;;;72.63;15.02;;;3.70;50.50;;;;;;5092953;28;20243;-71
2021/01/31 09:55:38;;;;;;;72.45;13.77;;;3.80;51.50;;;;;;5093004;28;20574;-70
2021/01/31 09:58:16;;;;;;;71.22;14.23;;;3.80;51.30;;;;;;5092861;28;20204;-71
2021/01/31 10:00:42;;;;;;;69.47;13.25;;;3.90;51.50;;;;;;5093531;28;20204;-69
2021/01/31 10:03:17;;;;;;;68.78;12.50;;;4.00;49.10;;;;;;5091190;28;20224;-70
2021/01/31 10:05:43;;;;;;;73.57;14.50;;;4.00;48.80;;;;;;5092994;28;20236;-70
2021/01/31 10:08:14;;;;;;;70.95;13.65;;;4.10;46.50;;;;;;5092812;28;20204;-70
2021/01/31 10:10:43;;;;;;;73.45;15.73;;;4.10;43.40;;;;;;5092749;28;20671;-70
2021/01/31 10:13:17;;;;;;;71.68;14.05;;;4.10;39.30;;;;;;5092681;28;20200;-71
2021/01/31 10:15:51;;;;;;;79.70;19.63;;;4.20;36.00;;;;;;5092822;28;20203;-71
2021/01/31 10:18:27;;;;;;;77.22;15.05;;;4.20;32.60;;;;;;5092521;28;20205;-71
2021/01/31 10:21:17;;;;;;;70.22;14.15;;;4.30;27.80;;;;;;5092271;28;20291;-71
2021/01/31 10:23:44;;;;;;;71.43;15.40;;;4.40;29.50;;;;;;5092159;28;20224;-71
2021/01/31 10:26:15;;;;;;;70.43;13.82;;;4.50;29.80;;;;;;5092605;28;20365;-71
2021/01/31 10:28:48;;;;;;;68.22;12.45;;;4.50;28.70;;;;;;5092554;28;20205;-71
2021/01/31 10:31:25;;;;;;;68.70;13.52;;;4.50;26.70;;;;;;5092623;28;20214;-71
2021/01/31 10:33:52;;;;;;;71.63;13.65;;;4.60;21.30;;;;;;5091045;28;20235;-71
2021/01/31 10:36:26;;;;;;;70.75;14.65;;;4.60;18.50;;;;;;5092514;28;20215;-71
2021/01/31 10:38:55;;;;;;;71.03;13.43;;;4.70;20.20;;;;;;5092687;28;20364;-71
2021/01/31 10:41:21;;;;;;;71.82;14.90;;;4.70;21.00;;;;;;5092696;28;20728;-71
2021/01/31 10:44:03;;;;;;;69.70;14.13;;;4.80;24.90;;;;;;5092298;28;20244;-72
2021/01/31 10:46:31;;;;;;;69.95;13.50;;;5.00;29.10;;;;;;5092520;28;20200;-71
2021/01/31 10:48:58;;;;;;;69.18;13.43;;;5.10;27.30;;;;;;5092280;28;20705;-71
2021/01/31 10:51:26;;;;;;;70.72;13.75;;;5.10;12.50;;;;;;5092465;28;20211;-71
2021/01/31 10:53:52;;;;;;;69.75;13.48;;;5.10;12.70;;;;;;5092016;28;20216;-71
2021/01/31 10:56:19;;;;;;;68.85;14.45;;;5.10;8.10;;;;;;5092096;28;20629;-71
2021/01/31 10:58:45;;;;;;;71.88;13.68;;;5.10;10.70;;;;;;5092328;28;20613;-71
2021/01/31 11:01:12;;;;;;;67.55;12.27;;;5.00;9.80;;;;;;5092310;28;20585;-70
2021/01/31 11:03:39;;;;;;;69.35;13.05;;;5.00;1.00;;;;;;5091878;28;20228;-71
2021/01/31 11:06:05;;;;;;;69.18;13.55;;;4.90;1.00;;;;;;5091927;28;20231;-72
2021/01/31 11:08:32;;;;;;;71.30;14.40;;;4.80;1.00;;;;;;5091982;28;20208;-71
2021/01/31 11:10:58;;;;;;;67.70;12.98;;;4.70;1.00;;;;;;5091866;28;20295;-70
2021/01/31 11:13:25;;;;;;;68.35;11.70;;;4.70;1.00;;;;;;5092050;28;20311;-71
2021/01/31 11:15:52;;;;;;;69.57;13.63;;;4.70;1.00;;;;;;5091921;28;20204;-71
2021/01/31 11:18:19;;;;;;;68.13;12.30;;;4.80;1.00;;;;;;5091967;28;20200;-71
2021/01/31 11:20:48;;;;;;;67.82;12.90;;;4.90;1.00;;;;;;5091936;28;20200;-71
2021/01/31 11:23:14;;;;;;;68.00;14.32;;;5.20;1.00;;;;;;5091626;28;20220;-71
2021/01/31 11:25:41;;;;;;;68.80;13.63;;;5.50;1.00;;;;;;5091678;28;20723;-70
2021/01/31 11:28:07;;;;;;;69.32;13.43;;;5.80;1.00;;;;;;5092050;28;20205;-71
2021/01/31 11:30:34;;;;;;;69.07;13.65;;;6.00;1.00;;;;;;5091954;28;20212;-72
2021/01/31 11:33:01;;;;;;;70.05;12.48;;;6.30;1.00;;;;;;5092972;28;20213;-72
2021/01/31 11:35:29;;;;;;;67.28;12.55;;;6.40;1.00;;;;;;5096030;28;20213;-72
2021/01/31 11:37:55;;;;;;;68.68;13.48;;;6.50;1.00;;;;;;5095849;28;20201;-71
2021/01/31 11:40:22;;;;;;;66.97;12.18;;;6.50;1.00;;;;;;5095797;28;20621;-71
2021/01/31 11:42:49;;;;;;;69.73;13.97;;;6.50;1.00;;;;;;5095812;28;20212;-71
2021/01/31 11:45:18;;;;;;;68.20;12.13;;;6.50;1.00;;;;;;5095736;28;20460;-72
2021/01/31 11:47:44;;;;;;;68.67;12.47;;;6.40;1.00;;;;;;5095729;28;20444;-72
2021/01/31 11:50:13;;;;;;;67.27;11.10;;;6.30;1.00;;;;;;5095582;28;20513;-72
2021/01/31 11:52:40;;;;;;;67.10;11.88;;;6.20;1.00;;;;;;5095347;28;20448;-71
2021/01/31 11:55:08;;;;;;;68.80;13.07;;;6.10;1.00;;;;;;5095444;28;20229;-72
2021/01/31 11:57:35;;;;;;;66.22;10.77;;;6.00;1.00;;;;;;5095833;28;20741;-72
2021/01/31 12:00:01;;;;;;;64.78;11.30;;;6.00;1.00;;;;;;5095488;28;20209;-72
2021/01/31 12:02:28;;;;;;;65.47;11.23;;;5.90;1.00;;;;;;5095463;28;20210;-71
2021/01/31 12:04:54;;;;;;;66.30;12.47;;;5.80;1.00;;;;;;5095138;28;21006;-71
2021/01/31 12:07:20;;;;;;;67.45;12.38;;;5.80;1.00;;;;;;5095705;28;21006;-72
2021/01/31 12:09:48;;;;;;;68.00;11.40;;;5.80;1.00;;;;;;5095512;28;20234;-71
2021/01/31 12:12:14;;;;;;;66.15;11.93;;;5.80;1.00;;;;;;5095298;28;20257;-71
2021/01/31 12:14:41;;;;;;;69.60;12.00;;;6.00;1.00;;;;;;5095182;28;20220;-71
2021/01/31 12:17:08;;;;;;;66.75;11.60;;;6.00;1.00;;;;;;5095356;28;20258;-72
2021/01/31 12:19:34;;;;;;;64.70;10.68;;;6.10;1.00;;;;;;5095151;28;20236;-71
2021/01/31 12:22:00;;;;;;;68.13;11.07;;;6.10;1.00;;;;;;5094886;28;20729;-71
2021/01/31 12:24:27;;;;;;;68.93;11.45;;;6.20;1.00;;;;;;5095204;28;20602;-72
2021/01/31 12:26:54;;;;;;;67.97;11.25;;;6.30;1.00;;;;;;5095360;28;20262;-71
2021/01/31 12:29:21;;;;;;;66.00;11.40;;;6.30;1.00;;;;;;5094952;28;20582;-72
2021/01/31 12:31:47;;;;;;;66.57;11.18;;;6.40;1.00;;;;;;5094841;28;21024;-71
2021/01/31 12:34:14;;;;;;;66.80;10.80;;;6.40;1.00;;;;;;5094409;28;20226;-72
2021/01/31 12:36:42;;;;;;;65.30;10.67;;;6.40;1.00;;;;;;5094759;28;20480;-72
2021/01/31 12:39:09;;;;;;;68.53;12.20;;;6.50;1.00;;;;;;5094922;28;20451;-69
2021/01/31 12:41:35;;;;;;;68.20;12.60;;;6.70;1.00;;;;;;5094806;28;20451;-71
2021/01/31 12:44:03;;;;;;;67.60;11.67;;;6.70;1.00;;;;;;5094274;28;20231;-71
2021/01/31 12:46:29;;;;;;;67.33;12.57;;;6.80;1.00;;;;;;5094651;28;20456;-71
2021/01/31 12:48:56;;;;;;;67.30;11.30;;;6.70;1.00;;;;;;5094466;28;20451;-72
2021/01/31 12:51:25;;;;;;;67.37;11.93;;;6.50;1.00;;;;;;5094645;28;20539;-72
2021/01/31 12:53:51;;;;;;;66.47;11.07;;;6.40;1.00;;;;;;5094662;28;20472;-71
2021/01/31 12:56:18;;;;;;;65.10;10.97;;;6.30;1.00;;;;;;5094744;28;20445;-72
2021/01/31 12:58:44;;;;;;;68.55;12.40;;;6.00;1.00;;;;;;5094738;28;20459;-71
2021/01/31 13:01:11;;;;;;;66.40;12.07;;;5.90;1.00;;;;;;5094594;28;20206;-71